createdAt,value
2019-03-26T00:00:00.392Z,94.00
2019-03-26T00:02:28.845Z,93.80
2019-03-26T00:04:57.382Z,93.80
2019-03-26T00:07:25.883Z,93.80
2019-03-26T00:09:54.353Z,93.80
2019-03-26T00:12:22.771Z,93.80
2019-03-26T00:14:51.187Z,93.80
2019-03-26T00:17:19.651Z,93.70
2019-03-26T00:19:48.138Z,93.50
2019-03-26T00:22:16.595Z,93.60
2019-03-26T00:24:45.074Z,93.70
2019-03-26T00:27:13.563Z,93.80
2019-03-26T00:29:42.042Z,93.80
2019-03-26T00:32:10.548Z,93.80
2019-03-26T00:34:39.013Z,93.80
2019-03-26T00:37:07.511Z,93.80
2019-03-26T00:39:35.945Z,93.70
2019-03-26T00:42:05.044Z,93.70
2019-03-26T00:44:33.466Z,93.60
2019-03-26T00:47:01.911Z,93.70
2019-03-26T00:49:30.328Z,93.70
2019-03-26T00:51:58.763Z,93.60
2019-03-26T00:54:27.194Z,93.50
2019-03-26T00:56:55.654Z,93.50
2019-03-26T00:59:24.175Z,93.40
2019-03-26T01:01:52.714Z,93.40
2019-03-26T01:04:32.216Z,93.50
2019-03-26T01:06:51.403Z,93.40
2019-03-26T01:09:19.833Z,93.40
2019-03-26T01:11:48.314Z,93.40
2019-03-26T01:14:16.741Z,93.50
2019-03-26T01:16:45.164Z,93.60
2019-03-26T01:19:13.687Z,93.50
2019-03-26T01:21:42.116Z,93.60
2019-03-26T01:24:10.618Z,93.60
2019-03-26T01:26:39.068Z,93.50
2019-03-26T01:29:07.516Z,93.60
2019-03-26T01:31:35.971Z,93.50
2019-03-26T01:34:04.497Z,93.50
2019-03-26T01:36:32.972Z,93.50
2019-03-26T01:39:01.397Z,93.40
2019-03-26T01:41:29.856Z,93.30
2019-03-26T01:43:58.280Z,93.20
2019-03-26T01:46:26.741Z,93.20
2019-03-26T01:48:55.161Z,93.20
2019-03-26T01:51:23.612Z,93.40
2019-03-26T01:53:52.063Z,93.40
2019-03-26T01:56:20.488Z,93.50
2019-03-26T01:58:48.908Z,93.60
2019-03-26T02:01:17.363Z,93.70
2019-03-26T02:03:45.778Z,93.90
2019-03-26T02:06:14.244Z,93.90
2019-03-26T02:08:42.665Z,94.00
2019-03-26T02:11:11.115Z,94.20
2019-03-26T02:13:39.546Z,94.30
2019-03-26T02:16:08.007Z,94.30
2019-03-26T02:18:36.439Z,94.40
2019-03-26T02:21:04.956Z,94.50
2019-03-26T02:23:33.422Z,94.60
2019-03-26T02:26:01.855Z,94.60
2019-03-26T02:28:30.316Z,94.70
2019-03-26T02:30:58.751Z,94.80
2019-03-26T02:33:27.205Z,94.90
2019-03-26T02:35:55.661Z,95.00
2019-03-26T02:38:24.101Z,95.10
2019-03-26T02:40:52.523Z,95.20
2019-03-26T02:43:20.988Z,95.30
2019-03-26T02:45:49.493Z,95.40
2019-03-26T02:48:18.032Z,95.50
2019-03-26T02:50:46.460Z,95.40
2019-03-26T02:53:14.982Z,95.50
2019-03-26T02:55:43.399Z,95.40
2019-03-26T02:58:11.858Z,95.20
2019-03-26T03:00:40.287Z,95.10
2019-03-26T03:03:08.711Z,94.80
2019-03-26T03:05:37.161Z,94.60
2019-03-26T03:08:05.750Z,94.30
2019-03-26T03:10:34.193Z,94.00
2019-03-26T03:13:02.730Z,93.80
2019-03-26T03:15:31.507Z,93.60
2019-03-26T03:18:00.374Z,93.50
2019-03-26T03:20:28.781Z,93.30
2019-03-26T03:22:57.307Z,93.10
2019-03-26T03:25:25.724Z,93.00
2019-03-26T03:27:54.185Z,92.80
2019-03-26T03:30:22.680Z,92.50
2019-03-26T03:32:51.184Z,92.30
2019-03-26T03:35:19.604Z,92.20
2019-03-26T03:37:48.065Z,92.20
2019-03-26T03:40:16.565Z,92.20
2019-03-26T03:42:45.003Z,92.30
2019-03-26T03:45:15.299Z,92.30
2019-03-26T03:47:44.390Z,92.30
2019-03-26T03:50:13.206Z,92.40
2019-03-26T03:52:41.800Z,92.40
2019-03-26T03:55:10.972Z,92.40
2019-03-26T03:57:40.435Z,92.50
2019-03-26T04:00:21.160Z,92.40
2019-03-26T04:06:09.068Z,92.40
2019-03-26T04:08:27.938Z,92.60
2019-03-26T04:10:56.471Z,92.80
2019-03-26T04:13:24.992Z,92.90
2019-03-26T04:15:53.408Z,93.00
2019-03-26T04:18:21.868Z,93.40
2019-03-26T04:20:50.291Z,93.10
2019-03-26T04:23:18.736Z,93.10
2019-03-26T04:25:47.162Z,93.20
2019-03-26T04:28:15.616Z,93.30
2019-03-26T04:30:44.091Z,93.30
2019-03-26T04:33:12.587Z,93.50
2019-03-26T04:35:41.099Z,93.60
2019-03-26T04:38:09.532Z,93.70
2019-03-26T04:43:32.796Z,94.00
2019-03-26T04:46:01.216Z,94.20
2019-03-26T04:48:29.650Z,94.30
2019-03-26T04:50:58.105Z,94.40
2019-03-26T04:53:26.539Z,94.50
2019-03-26T04:55:55.059Z,94.50
2019-03-26T04:58:23.524Z,94.40
2019-03-26T05:00:51.957Z,94.50
2019-03-26T05:03:20.470Z,94.60
2019-03-26T05:05:48.885Z,94.70
2019-03-26T05:08:17.331Z,94.80
2019-03-26T05:10:45.789Z,94.70
2019-03-26T05:13:14.207Z,94.70
2019-03-26T05:15:42.656Z,94.60
2019-03-26T05:18:11.080Z,94.60
2019-03-26T05:20:39.536Z,95.00
2019-03-26T05:23:07.956Z,94.70
2019-03-26T05:25:36.434Z,94.80
2019-03-26T05:28:04.888Z,95.00
2019-03-26T05:30:33.395Z,95.10
2019-03-26T05:33:01.847Z,95.30
2019-03-26T05:35:30.306Z,95.30
2019-03-26T05:37:58.724Z,95.30
2019-03-26T05:40:27.179Z,95.40
2019-03-26T05:42:55.648Z,95.40
2019-03-26T05:45:24.068Z,95.50
2019-03-26T05:47:52.524Z,95.60
2019-03-26T05:50:21.015Z,95.70
2019-03-26T05:52:49.440Z,95.70
2019-03-26T05:55:17.887Z,95.80
2019-03-26T05:57:46.304Z,95.90
2019-03-26T06:00:16.725Z,96.10
2019-03-26T06:02:45.207Z,96.20
2019-03-26T06:08:09.029Z,96.10
2019-03-26T06:10:37.482Z,96.10
2019-03-26T06:13:25.242Z,96.20
2019-03-26T06:15:53.692Z,96.20
2019-03-26T06:18:22.131Z,96.30
2019-03-26T06:20:50.548Z,96.30
2019-03-26T06:23:18.996Z,96.30
2019-03-26T06:25:47.491Z,96.40
2019-03-26T06:28:15.939Z,96.50
2019-03-26T06:30:44.364Z,96.50
2019-03-26T06:33:12.815Z,96.50
2019-03-26T06:35:41.227Z,96.50
2019-03-26T06:38:09.675Z,96.50
2019-03-26T06:40:38.112Z,96.60
2019-03-26T06:43:06.559Z,96.50
2019-03-26T06:45:34.988Z,96.40
2019-03-26T06:48:04.535Z,96.40
2019-03-26T06:50:33.217Z,96.60
2019-03-26T06:53:01.739Z,96.50
2019-03-26T06:55:30.152Z,96.60
2019-03-26T06:57:58.595Z,96.50
2019-03-26T07:00:32.679Z,96.60
2019-03-26T07:03:02.473Z,96.50
2019-03-26T07:05:30.920Z,96.40
2019-03-26T07:07:59.440Z,96.40
2019-03-26T07:10:29.687Z,96.20
2019-03-26T07:12:58.849Z,96.40
2019-03-26T07:15:27.343Z,96.40
2019-03-26T07:17:55.856Z,96.40
2019-03-26T07:20:25.223Z,96.30
2019-03-26T07:22:53.715Z,96.40
2019-03-26T07:25:22.253Z,96.40
2019-03-26T07:27:50.667Z,96.30
2019-03-26T07:30:38.299Z,96.30
2019-03-26T07:33:06.896Z,96.30
2019-03-26T07:35:35.384Z,96.60
2019-03-26T07:38:03.876Z,96.40
2019-03-26T07:40:32.398Z,96.10
2019-03-26T07:43:00.820Z,95.70
2019-03-26T07:45:29.304Z,95.30
2019-03-26T07:47:57.713Z,95.50
2019-03-26T07:50:26.276Z,95.40
2019-03-26T07:52:54.900Z,95.50
2019-03-26T07:55:23.307Z,95.40
2019-03-26T07:57:51.734Z,95.10
2019-03-26T08:00:23.259Z,94.90
2019-03-26T08:02:51.671Z,94.80
2019-03-26T08:05:29.265Z,94.50
2019-03-26T08:07:58.315Z,94.40
2019-03-26T08:10:20.465Z,94.30
2019-03-26T08:12:48.896Z,94.20
2019-03-26T08:15:20.179Z,94.30
2019-03-26T08:17:47.520Z,94.50
2019-03-26T08:20:16.039Z,94.50
2019-03-26T08:22:44.567Z,93.90
2019-03-26T08:25:13.179Z,93.80
2019-03-26T08:27:41.743Z,93.90
2019-03-26T08:30:10.431Z,94.10
2019-03-26T08:32:38.855Z,94.20
2019-03-26T08:35:07.403Z,94.10
2019-03-26T08:37:35.848Z,94.40
2019-03-26T08:40:07.832Z,94.40
2019-03-26T08:42:36.267Z,94.50
2019-03-26T08:45:09.425Z,94.40
2019-03-26T08:47:37.840Z,94.40
2019-03-26T09:02:32.943Z,93.60
2019-03-26T09:05:01.372Z,93.70
2019-03-26T09:07:29.978Z,93.90
2019-03-26T09:09:58.392Z,93.90
2019-03-26T09:12:26.975Z,93.70
2019-03-26T09:14:55.383Z,93.50
2019-03-26T09:17:24.940Z,93.30
2019-03-26T09:19:53.460Z,92.80
2019-03-26T09:22:21.887Z,92.90
2019-03-26T09:24:50.334Z,93.40
2019-03-26T09:27:18.768Z,92.80
2019-03-26T09:29:47.282Z,92.90
2019-03-26T09:32:15.699Z,93.00
2019-03-26T09:34:44.147Z,93.20
2019-03-26T09:37:12.569Z,93.50
2019-03-26T09:39:41.001Z,93.60
2019-03-26T09:42:09.907Z,93.50
2019-03-26T09:44:38.388Z,93.40
2019-03-26T09:47:16.053Z,93.40
2019-03-26T09:49:37.678Z,93.30
2019-03-26T09:52:06.141Z,92.70
2019-03-26T09:54:36.582Z,91.90
2019-03-26T09:57:05.153Z,91.70
2019-03-26T09:59:33.748Z,91.60
2019-03-26T10:02:02.215Z,91.80
2019-03-26T10:04:30.671Z,92.60
2019-03-26T10:06:59.088Z,93.30
2019-03-26T10:09:27.525Z,93.80
2019-03-26T10:11:55.937Z,94.20
2019-03-26T10:14:24.452Z,94.20
2019-03-26T10:16:53.034Z,94.50
2019-03-26T10:19:22.559Z,94.60
2019-03-26T10:21:51.465Z,94.50
2019-03-26T10:24:21.834Z,94.50
2019-03-26T10:26:51.934Z,94.40
2019-03-26T10:29:30.065Z,94.20
2019-03-26T10:31:51.113Z,94.40
2019-03-26T10:34:19.810Z,93.50
2019-03-26T10:36:49.280Z,93.10
2019-03-26T10:39:17.834Z,93.10
2019-03-26T10:41:46.454Z,93.30
2019-03-26T10:44:14.886Z,93.40
2019-03-26T10:46:44.665Z,93.60
2019-03-26T10:49:13.567Z,92.90
2019-03-26T10:51:42.087Z,92.80
2019-03-26T10:54:11.870Z,92.60
2019-03-26T10:56:40.542Z,92.80
2019-03-26T10:59:09.261Z,92.40
2019-03-26T11:01:37.738Z,91.90
2019-03-26T11:04:07.807Z,91.40
2019-03-26T11:06:36.637Z,90.50
2019-03-26T11:09:20.042Z,90.20
2019-03-26T11:11:36.626Z,90.20
2019-03-26T11:14:05.122Z,90.50
2019-03-26T11:16:33.688Z,90.50
2019-03-26T11:19:02.126Z,90.50
2019-03-26T11:21:30.626Z,89.80
2019-03-26T11:23:59.067Z,89.80
2019-03-26T11:26:27.473Z,89.20
2019-03-26T11:28:55.999Z,87.50
2019-03-26T11:31:24.481Z,86.20
2019-03-26T11:33:52.945Z,85.30
2019-03-26T11:36:21.551Z,85.00
2019-03-26T11:38:50.066Z,86.00
2019-03-26T11:41:18.474Z,85.10
2019-03-26T11:43:46.908Z,84.70
2019-03-26T11:46:15.359Z,84.70
2019-03-26T11:48:43.778Z,85.80
2019-03-26T11:51:12.193Z,84.40
2019-03-26T11:53:40.621Z,82.70
2019-03-26T11:56:09.039Z,83.30
2019-03-26T11:58:37.477Z,82.60
2019-03-26T12:01:05.971Z,80.90
2019-03-26T12:03:34.389Z,81.70
2019-03-26T12:06:02.804Z,81.20
2019-03-26T12:08:31.591Z,82.20
2019-03-26T12:11:00.070Z,83.00
2019-03-26T12:13:28.504Z,83.70
2019-03-26T12:15:56.919Z,82.90
2019-03-26T12:18:25.388Z,82.70
2019-03-26T12:20:53.934Z,82.10
2019-03-26T12:23:22.440Z,82.50
2019-03-26T12:25:50.855Z,83.20
2019-03-26T12:28:19.286Z,83.50
2019-03-26T12:30:47.696Z,82.70
2019-03-26T12:33:16.133Z,82.20
2019-03-26T12:35:44.585Z,81.70
2019-03-26T12:38:17.599Z,82.00
2019-03-26T12:40:46.350Z,81.90
2019-03-26T12:43:14.837Z,81.40
2019-03-26T12:45:43.697Z,81.20
2019-03-26T12:48:12.258Z,80.50
2019-03-26T12:55:58.833Z,80.30
2019-03-26T12:58:32.130Z,80.70
2019-03-26T13:00:58.741Z,80.60
2019-03-26T13:03:27.361Z,81.10
2019-03-26T13:05:55.820Z,81.30
2019-03-26T13:08:24.287Z,80.70
2019-03-26T13:10:54.088Z,80.50
2019-03-26T13:13:22.927Z,80.50
2019-03-26T13:15:51.379Z,81.10
2019-03-26T13:18:19.817Z,80.70
2019-03-26T13:20:48.329Z,81.60
2019-03-26T13:23:16.747Z,81.30
2019-03-26T13:25:45.163Z,81.50
2019-03-26T13:28:13.723Z,82.30
2019-03-26T13:31:01.816Z,81.80
2019-03-26T13:33:30.371Z,82.40
2019-03-26T13:35:58.810Z,82.90
2019-03-26T13:38:27.268Z,82.60
2019-03-26T13:40:56.890Z,82.20
2019-03-26T13:43:25.351Z,82.20
2019-03-26T13:46:03.052Z,82.20
2019-03-26T13:48:33.085Z,82.60
2019-03-26T13:51:02.975Z,82.80
2019-03-26T13:53:51.583Z,82.70
2019-03-26T13:56:22.381Z,82.40
2019-03-26T13:58:51.574Z,82.70
2019-03-26T14:01:21.116Z,82.80
2019-03-26T14:03:49.832Z,82.50
2019-03-26T14:06:18.295Z,82.90
2019-03-26T14:08:47.723Z,82.60
2019-03-26T14:11:23.824Z,83.30
2019-03-26T14:13:52.379Z,82.10
2019-03-26T14:16:21.214Z,80.90
2019-03-26T14:18:50.856Z,81.30
2019-03-26T14:21:19.948Z,80.80
2019-03-26T14:23:51.171Z,80.30
2019-03-26T14:26:22.224Z,79.30
2019-03-26T14:28:53.014Z,79.60
2019-03-26T14:31:21.454Z,80.50
2019-03-26T14:33:49.924Z,80.40
2019-03-26T14:36:18.368Z,81.10
2019-03-26T14:38:49.300Z,81.20
2019-03-26T14:41:20.311Z,80.50
2019-03-26T14:43:49.407Z,80.30
2019-03-26T14:46:19.059Z,80.00
2019-03-26T14:48:49.427Z,79.40
2019-03-26T14:51:18.493Z,79.70
2019-03-26T14:53:49.112Z,79.00
2019-03-26T14:56:19.908Z,79.20
2019-03-26T14:58:50.966Z,78.30
2019-03-26T15:01:24.576Z,76.80
2019-03-26T15:03:53.443Z,76.20
2019-03-26T15:06:23.540Z,75.30
2019-03-26T15:08:55.220Z,74.40
2019-03-26T15:11:27.035Z,71.60
2019-03-26T15:14:01.265Z,72.10
2019-03-26T15:16:32.495Z,72.60
2019-03-26T15:19:02.772Z,72.00
2019-03-26T15:21:34.111Z,71.80
2019-03-26T15:24:06.804Z,71.80
2019-03-26T15:26:35.247Z,72.30
2019-03-26T15:29:03.675Z,71.20
2019-03-26T15:31:32.169Z,71.50
2019-03-26T15:34:00.611Z,72.50
2019-03-26T15:36:29.058Z,73.10
2019-03-26T15:38:57.577Z,73.00
2019-03-26T15:41:26.103Z,73.20
2019-03-26T15:43:54.535Z,73.80
2019-03-26T15:46:23.020Z,73.00
2019-03-26T15:48:51.471Z,73.60
2019-03-26T15:51:19.961Z,73.80
2019-03-26T15:53:48.415Z,74.20
2019-03-26T15:56:16.907Z,74.60
2019-03-26T15:58:45.360Z,74.50
2019-03-26T16:01:13.868Z,74.60
2019-03-26T16:03:42.335Z,75.20
2019-03-26T16:06:10.842Z,75.90
2019-03-26T16:08:39.279Z,76.60
2019-03-26T16:11:07.772Z,76.50
2019-03-26T16:13:36.224Z,76.30
2019-03-26T16:16:04.891Z,76.30
2019-03-26T16:18:33.343Z,76.10
2019-03-26T16:21:01.772Z,76.60
2019-03-26T16:23:30.366Z,77.00
2019-03-26T16:25:58.859Z,77.00
2019-03-26T16:28:27.283Z,76.90
2019-03-26T16:30:55.736Z,77.00
2019-03-26T16:33:24.177Z,77.30
2019-03-26T16:35:52.634Z,77.80
2019-03-26T16:38:21.064Z,77.70
2019-03-26T16:40:49.475Z,77.70
2019-03-26T16:43:18.028Z,78.10
2019-03-26T16:45:46.524Z,78.00
2019-03-26T16:48:15.032Z,77.60
2019-03-26T16:50:43.464Z,77.60
2019-03-26T16:53:11.897Z,77.50
2019-03-26T16:55:40.330Z,77.40
2019-03-26T16:58:08.759Z,77.40
2019-03-26T17:00:37.280Z,77.60
2019-03-26T17:03:06.052Z,78.00
2019-03-26T17:05:34.546Z,78.40
2019-03-26T17:08:03.107Z,78.90
2019-03-26T17:10:31.551Z,79.30
2019-03-26T17:12:59.969Z,79.40
2019-03-26T17:15:28.681Z,79.70
2019-03-26T17:18:16.446Z,79.80
2019-03-26T17:20:45.871Z,79.40
2019-03-26T17:23:19.636Z,79.50
2019-03-26T17:25:55.685Z,79.40
2019-03-26T17:28:25.131Z,79.80
2019-03-26T17:30:53.950Z,80.10
2019-03-26T17:33:22.387Z,80.70
2019-03-26T17:35:51.952Z,81.20
2019-03-26T17:38:20.811Z,81.80
2019-03-26T17:40:52.740Z,82.10
2019-03-26T17:43:22.290Z,82.60
2019-03-26T17:45:50.946Z,83.00
2019-03-26T17:48:21.049Z,83.40
2019-03-26T17:50:50.947Z,83.70
2019-03-26T17:53:20.001Z,83.70
2019-03-26T17:55:55.445Z,84.00
2019-03-26T17:58:26.975Z,84.10
2019-03-26T18:00:57.285Z,84.60
2019-03-26T18:03:27.006Z,84.90
2019-03-26T18:05:57.139Z,85.10
2019-03-26T18:08:25.866Z,85.30
2019-03-26T18:10:55.963Z,85.30
2019-03-26T18:13:43.977Z,85.40
2019-03-26T18:16:12.596Z,85.40
2019-03-26T18:18:41.936Z,86.50
2019-03-26T18:21:14.099Z,85.80
2019-03-26T18:23:42.740Z,86.60
2019-03-26T18:26:11.965Z,85.70
2019-03-26T18:28:40.900Z,85.80
2019-03-26T18:31:09.531Z,85.80
2019-03-26T18:33:38.010Z,85.70
2019-03-26T18:36:06.537Z,85.90
2019-03-26T18:38:35.052Z,86.00
2019-03-26T18:41:08.373Z,86.10
2019-03-26T18:43:37.967Z,86.10
2019-03-26T18:46:07.464Z,86.90
2019-03-26T18:48:36.115Z,86.20
2019-03-26T18:51:04.951Z,86.50
2019-03-26T18:53:33.579Z,86.60
2019-03-26T18:56:04.707Z,86.70
2019-03-26T18:58:33.264Z,86.90
2019-03-26T19:01:02.697Z,87.20
2019-03-26T19:03:35.721Z,87.50
2019-03-26T19:06:04.414Z,87.90
2019-03-26T19:08:34.596Z,88.10
2019-03-26T19:11:07.345Z,88.40
2019-03-26T19:13:35.970Z,88.70
2019-03-26T19:16:04.425Z,89.10
2019-03-26T19:18:32.886Z,89.40
2019-03-26T19:21:02.730Z,89.60
2019-03-26T19:23:32.362Z,89.80
2019-03-26T19:26:01.059Z,90.00
2019-03-26T19:28:29.540Z,90.10
2019-03-26T19:30:59.617Z,90.10
2019-03-26T19:33:31.883Z,90.10
2019-03-26T19:36:01.439Z,90.20
2019-03-26T19:38:31.272Z,90.30
2019-03-26T19:41:01.021Z,90.30
2019-03-26T19:43:30.786Z,90.40
2019-03-26T19:46:01.725Z,90.50
2019-03-26T19:48:32.565Z,90.60
2019-03-26T19:51:01.773Z,90.70
2019-03-26T19:53:30.803Z,90.80
2019-03-26T19:56:00.146Z,90.90
2019-03-26T19:58:33.001Z,91.10
2019-03-26T20:01:02.963Z,91.20
2019-03-26T20:03:31.988Z,91.20
2019-03-26T20:06:12.738Z,91.40
2019-03-26T20:08:32.423Z,91.40
2019-03-26T20:11:01.533Z,91.50
2019-03-26T20:13:30.841Z,91.60
2019-03-26T20:15:59.462Z,91.70
2019-03-26T20:18:27.952Z,91.80
2019-03-26T20:20:56.726Z,91.90
2019-03-26T20:23:25.275Z,92.10
2019-03-26T20:25:54.116Z,92.10
2019-03-26T20:28:22.783Z,92.30
2019-03-26T20:30:51.542Z,92.40
2019-03-26T20:33:20.738Z,92.50
2019-03-26T20:35:49.251Z,92.50
2019-03-26T20:38:18.314Z,92.60
2019-03-26T20:40:46.857Z,92.70
2019-03-26T20:43:15.366Z,92.70
2019-03-26T20:45:44.135Z,92.80
2019-03-26T20:48:13.010Z,92.80
2019-03-26T20:50:42.129Z,92.80
2019-03-26T20:53:10.586Z,92.80
2019-03-26T20:55:39.135Z,92.90
2019-03-26T20:58:07.852Z,93.00
2019-03-26T21:00:41.264Z,93.10
2019-03-26T21:03:10.171Z,93.10
2019-03-26T21:05:38.868Z,93.10
2019-03-26T21:08:07.490Z,93.10
2019-03-26T21:10:37.986Z,93.10
2019-03-26T21:13:06.703Z,93.10
2019-03-26T21:15:35.327Z,93.20
2019-03-26T21:18:04.124Z,93.10
2019-03-26T21:20:32.579Z,93.20
2019-03-26T21:23:01.047Z,93.20
2019-03-26T21:25:29.509Z,93.30
2019-03-26T21:27:57.947Z,93.30
2019-03-26T21:30:26.374Z,93.30
2019-03-26T21:32:54.819Z,93.20
2019-03-26T21:35:23.245Z,93.30
2019-03-26T21:37:51.710Z,93.30
2019-03-26T21:40:21.655Z,93.90
2019-03-26T21:42:50.067Z,94.00
2019-03-26T21:45:21.585Z,94.10
2019-03-26T21:48:32.373Z,94.20
2019-03-26T21:51:00.791Z,94.30
2019-03-26T21:53:29.241Z,94.30
2019-03-26T21:56:06.224Z,94.50
2019-03-26T21:58:27.846Z,94.50
2019-03-26T22:00:56.327Z,94.60
2019-03-26T22:03:24.779Z,94.90
2019-03-26T22:05:53.200Z,94.90
2019-03-26T22:08:21.642Z,94.90
2019-03-26T22:10:50.131Z,95.00
2019-03-26T22:13:18.583Z,94.90
2019-03-26T22:15:46.999Z,94.90
2019-03-26T22:18:15.600Z,95.10
2019-03-26T22:20:44.018Z,95.20
2019-03-26T22:23:12.585Z,95.30
2019-03-26T22:25:41.371Z,95.40
2019-03-26T22:28:09.893Z,95.50
2019-03-26T22:30:57.675Z,95.50
2019-03-26T22:33:26.100Z,95.50
2019-03-26T22:35:56.008Z,95.50
2019-03-26T22:38:24.849Z,95.60
2019-03-26T22:40:53.291Z,95.60
2019-03-26T22:43:21.737Z,95.60
2019-03-26T22:45:50.410Z,95.60
2019-03-26T22:48:18.828Z,95.60
2019-03-26T22:50:47.249Z,95.70
2019-03-26T22:53:15.683Z,95.90
2019-03-26T22:55:44.103Z,96.10
2019-03-26T22:58:12.559Z,96.20
2019-03-26T23:00:41.113Z,96.40
2019-03-26T23:03:09.552Z,96.50
2019-03-26T23:05:38.136Z,96.60
2019-03-26T23:08:06.583Z,96.70
2019-03-26T23:10:35.094Z,96.80
2019-03-26T23:13:03.537Z,96.90
2019-03-26T23:15:32.056Z,97.10
2019-03-26T23:18:00.479Z,97.10
2019-03-26T23:20:28.927Z,97.10
2019-03-26T23:22:57.377Z,97.20
2019-03-26T23:25:25.828Z,97.20
2019-03-26T23:27:54.428Z,97.30
2019-03-26T23:30:42.203Z,97.30
2019-03-26T23:33:11.093Z,97.40
2019-03-26T23:35:39.546Z,97.60
2019-03-26T23:38:07.989Z,97.70
2019-03-26T23:40:36.407Z,98.10
2019-03-26T23:43:04.867Z,97.90
2019-03-26T23:45:33.438Z,98.00
2019-03-26T23:48:01.890Z,98.00
2019-03-26T23:50:30.340Z,98.10
2019-03-26T23:52:58.780Z,98.10
2019-03-26T23:55:27.292Z,98.20
2019-03-26T23:57:55.761Z,98.30
